createdAt,value
2022-10-05T00:00:01.286Z,1013.51
2022-10-05T00:01:01.312Z,1013.49
2022-10-05T00:02:01.323Z,1013.42
2022-10-05T00:03:01.299Z,1013.43
2022-10-05T00:04:01.257Z,1013.40
2022-10-05T00:05:01.261Z,1013.36
2022-10-05T00:06:01.234Z,1013.40
2022-10-05T00:07:01.220Z,1013.42
2022-10-05T00:08:01.242Z,1013.43
2022-10-05T00:09:01.193Z,1013.38
2022-10-05T00:10:01.189Z,1013.40
2022-10-05T00:11:01.173Z,1013.40
2022-10-05T00:12:01.206Z,1013.44
2022-10-05T00:13:01.190Z,1013.39
2022-10-05T00:14:01.119Z,1013.40
2022-10-05T00:15:01.144Z,1013.43
2022-10-05T00:16:01.161Z,1013.38
2022-10-05T00:17:01.127Z,1013.39
2022-10-05T00:18:01.151Z,1013.37
2022-10-05T00:19:01.093Z,1013.34
2022-10-05T00:20:01.070Z,1013.30
2022-10-05T00:21:01.081Z,1013.31
2022-10-05T00:22:01.053Z,1013.33
2022-10-05T00:23:01.070Z,1013.28
2022-10-05T00:24:01.024Z,1013.36
2022-10-05T00:25:01.017Z,1013.36
2022-10-05T00:26:01.002Z,1013.38
2022-10-05T00:27:01.005Z,1013.41
2022-10-05T00:28:01.051Z,1013.42
2022-10-05T00:29:00.983Z,1013.38
2022-10-05T00:30:01.011Z,1013.35
2022-10-05T00:31:00.959Z,1013.33
2022-10-05T00:32:01.006Z,1013.30
2022-10-05T00:33:00.962Z,1013.26
2022-10-05T00:34:00.902Z,1013.27
2022-10-05T00:35:00.906Z,1013.24
2022-10-05T00:36:00.879Z,1013.22
2022-10-05T00:37:00.915Z,1013.33
2022-10-05T00:38:00.920Z,1013.29
2022-10-05T00:39:00.870Z,1013.29
2022-10-05T00:40:00.846Z,1013.28
2022-10-05T00:41:00.850Z,1013.29
2022-10-05T00:42:00.826Z,1013.27
2022-10-05T00:43:00.861Z,1013.29
2022-10-05T00:44:00.796Z,1013.28
2022-10-05T00:45:00.786Z,1013.31
2022-10-05T00:46:00.844Z,1013.30
2022-10-05T00:47:00.767Z,1013.30
2022-10-05T00:48:00.805Z,1013.36
2022-10-05T00:49:00.756Z,1013.34
2022-10-05T00:50:00.738Z,1013.35
2022-10-05T00:51:00.728Z,1013.35
2022-10-05T00:52:00.723Z,1013.35
2022-10-05T00:53:00.758Z,1013.40
2022-10-05T00:54:00.722Z,1013.39
2022-10-05T00:55:00.688Z,1013.39
2022-10-05T00:56:00.667Z,1013.36
2022-10-05T00:57:00.699Z,1013.34
2022-10-05T00:58:00.699Z,1013.37
2022-10-05T00:59:00.654Z,1013.29
2022-10-05T01:00:00.621Z,1013.35
2022-10-05T01:01:00.693Z,1013.36
2022-10-05T01:02:00.639Z,1013.39
2022-10-05T01:03:00.626Z,1013.39
2022-10-05T01:04:00.571Z,1013.41
2022-10-05T01:05:00.572Z,1013.38
2022-10-05T01:06:00.565Z,1013.37
2022-10-05T01:07:00.556Z,1013.31
2022-10-05T01:08:00.575Z,1013.29
2022-10-05T01:09:00.529Z,1013.31
2022-10-05T01:10:00.618Z,1013.27
2022-10-05T01:11:00.522Z,1013.22
2022-10-05T01:12:00.498Z,1013.28
2022-10-05T01:13:00.529Z,1013.29
2022-10-05T01:14:00.479Z,1013.26
2022-10-05T01:15:00.467Z,1013.26
2022-10-05T01:16:00.503Z,1013.24
2022-10-05T01:17:00.514Z,1013.26
2022-10-05T01:18:00.479Z,1013.27
2022-10-05T01:19:00.414Z,1013.22
2022-10-05T01:20:00.400Z,1013.26
2022-10-05T01:21:00.394Z,1013.23
2022-10-05T01:22:00.374Z,1013.22
2022-10-05T01:23:00.413Z,1013.21
2022-10-05T01:24:00.358Z,1013.19
2022-10-05T01:25:00.355Z,1013.18
2022-10-05T01:26:00.340Z,1013.18
2022-10-05T01:27:00.328Z,1013.16
2022-10-05T01:28:00.421Z,1013.19
2022-10-05T01:29:00.304Z,1013.15
2022-10-05T01:30:00.306Z,1013.13
2022-10-05T01:31:00.278Z,1013.10
2022-10-05T01:32:00.263Z,1013.01
2022-10-05T01:33:00.293Z,1013.02
2022-10-05T01:34:00.233Z,1012.96
2022-10-05T01:35:00.240Z,1012.93
2022-10-05T01:36:00.213Z,1012.92
2022-10-05T01:37:00.222Z,1012.96
2022-10-05T01:38:00.241Z,1012.96
2022-10-05T01:39:00.193Z,1012.99
2022-10-05T01:40:00.171Z,1013.05
2022-10-05T01:41:00.181Z,1013.11
2022-10-05T01:42:00.194Z,1013.12
2022-10-05T01:43:00.174Z,1013.16
2022-10-05T01:44:00.139Z,1013.20
2022-10-05T01:45:00.118Z,1013.25
2022-10-05T01:46:00.219Z,1013.23
2022-10-05T01:47:00.104Z,1013.27
2022-10-05T01:48:00.116Z,1013.28
2022-10-05T01:49:00.077Z,1013.26
2022-10-05T01:50:00.049Z,1013.25
2022-10-05T01:51:00.041Z,1013.19
2022-10-05T01:52:00.036Z,1013.17
2022-10-05T01:53:00.095Z,1013.16
2022-10-05T01:54:00.028Z,1013.16
2022-10-05T01:55:00.017Z,1013.16
2022-10-05T01:55:59.990Z,1013.16
2022-10-05T01:56:59.977Z,1013.16
2022-10-05T01:57:59.999Z,1013.20
2022-10-05T01:58:59.954Z,1013.20
2022-10-05T01:59:59.954Z,1013.26
2022-10-05T02:00:59.991Z,1013.29
2022-10-05T02:01:59.938Z,1013.31
2022-10-05T02:02:59.949Z,1013.31
2022-10-05T02:03:59.928Z,1013.27
2022-10-05T02:05:02.640Z,1013.26
2022-10-05T02:05:59.880Z,1013.24
2022-10-05T02:06:59.881Z,1013.30
2022-10-05T02:07:59.911Z,1013.30
2022-10-05T02:08:59.855Z,1013.31
2022-10-05T02:09:59.836Z,1013.30
2022-10-05T02:10:59.836Z,1013.34
2022-10-05T02:11:59.813Z,1013.35
2022-10-05T02:12:59.856Z,1013.39
2022-10-05T02:13:59.797Z,1013.34
2022-10-05T02:14:59.757Z,1013.35
2022-10-05T02:15:59.800Z,1013.26
2022-10-05T02:16:59.756Z,1013.24
2022-10-05T02:17:59.788Z,1013.18
2022-10-05T02:18:59.744Z,1013.14
2022-10-05T02:19:59.710Z,1013.11
2022-10-05T02:20:59.723Z,1013.08
2022-10-05T02:21:59.686Z,1013.02
2022-10-05T02:22:59.733Z,1013.00
2022-10-05T02:23:59.671Z,1013.04
2022-10-05T02:24:59.682Z,1012.99
2022-10-05T02:25:59.677Z,1013.04
2022-10-05T02:26:59.645Z,1013.00
2022-10-05T02:27:59.729Z,1012.99
2022-10-05T02:28:59.636Z,1012.96
2022-10-05T02:29:59.614Z,1012.98
2022-10-05T02:30:59.600Z,1012.99
2022-10-05T02:31:59.597Z,1013.02
2022-10-05T02:32:59.610Z,1013.04
2022-10-05T02:33:59.561Z,1013.02
2022-10-05T02:34:59.536Z,1012.98
2022-10-05T02:35:59.540Z,1012.98
2022-10-05T02:36:59.542Z,1013.01
2022-10-05T02:37:59.564Z,1012.93
2022-10-05T02:38:59.517Z,1013.03
2022-10-05T02:39:59.499Z,1012.99
2022-10-05T02:40:59.481Z,1013.02
2022-10-05T02:41:59.488Z,1013.05
2022-10-05T02:42:59.512Z,1013.03
2022-10-05T02:43:59.452Z,1013.04
2022-10-05T02:44:59.436Z,1013.02
2022-10-05T02:45:59.463Z,1012.99
2022-10-05T02:46:59.414Z,1013.06
2022-10-05T02:47:59.449Z,1013.03
2022-10-05T02:48:59.403Z,1013.06
2022-10-05T02:49:59.384Z,1013.08
2022-10-05T02:50:59.364Z,1013.08
2022-10-05T02:51:59.357Z,1013.11
2022-10-05T02:52:59.393Z,1013.11
2022-10-05T02:53:59.339Z,1013.08
2022-10-05T02:54:59.342Z,1013.13
2022-10-05T02:55:59.327Z,1013.20
2022-10-05T02:56:59.302Z,1013.17
2022-10-05T02:57:59.334Z,1013.18
2022-10-05T02:58:59.279Z,1013.21
2022-10-05T02:59:59.284Z,1013.15
2022-10-05T03:00:59.289Z,1013.15
2022-10-05T03:01:59.296Z,1013.19
2022-10-05T03:02:59.268Z,1013.16
2022-10-05T03:03:59.210Z,1013.17
2022-10-05T03:04:59.199Z,1013.14
2022-10-05T03:05:59.197Z,1013.18
2022-10-05T03:06:59.201Z,1013.16
2022-10-05T03:07:59.211Z,1013.18
2022-10-05T03:08:59.184Z,1013.17
2022-10-05T03:10:01.234Z,1013.09
2022-10-05T03:10:59.190Z,1013.15
2022-10-05T03:11:59.128Z,1013.17
2022-10-05T03:12:59.169Z,1013.19
2022-10-05T03:13:59.115Z,1013.19
2022-10-05T03:14:59.101Z,1013.16
2022-10-05T03:15:59.171Z,1013.16
2022-10-05T03:16:59.082Z,1013.15
2022-10-05T03:17:59.123Z,1013.12
2022-10-05T03:18:59.064Z,1013.11
2022-10-05T03:19:59.065Z,1013.12
2022-10-05T03:20:59.033Z,1013.18
2022-10-05T03:21:59.019Z,1013.14
2022-10-05T03:22:59.051Z,1013.17
2022-10-05T03:23:58.992Z,1013.14
2022-10-05T03:24:59.004Z,1013.11
2022-10-05T03:25:58.973Z,1013.14
2022-10-05T03:26:58.983Z,1013.16
2022-10-05T03:27:59.040Z,1013.12
2022-10-05T03:28:58.945Z,1013.13
2022-10-05T03:29:58.962Z,1013.16
2022-10-05T03:30:58.937Z,1013.17
2022-10-05T03:31:58.929Z,1013.17
2022-10-05T03:32:58.891Z,1013.13
2022-10-05T03:33:58.917Z,1013.15
2022-10-05T03:34:58.863Z,1013.16
2022-10-05T03:35:58.862Z,1013.14
2022-10-05T03:36:58.854Z,1013.17
2022-10-05T03:37:58.845Z,1013.12
2022-10-05T03:38:58.866Z,1013.16
2022-10-05T03:39:58.815Z,1013.15
2022-10-05T03:40:58.796Z,1013.11
2022-10-05T03:41:58.797Z,1013.13
2022-10-05T03:42:58.778Z,1013.08
2022-10-05T03:43:58.818Z,1013.14
2022-10-05T03:44:58.751Z,1013.09
2022-10-05T03:45:58.811Z,1013.15
2022-10-05T03:46:58.740Z,1013.17
2022-10-05T03:48:01.435Z,1013.21
2022-10-05T03:48:58.747Z,1013.20
2022-10-05T03:49:58.698Z,1013.21
2022-10-05T03:50:58.692Z,1013.20
2022-10-05T03:51:58.679Z,1013.24
2022-10-05T03:52:58.672Z,1013.21
2022-10-05T03:53:58.706Z,1013.23
2022-10-05T03:54:58.642Z,1013.15
2022-10-05T03:55:58.669Z,1013.19
2022-10-05T03:56:58.620Z,1013.15
2022-10-05T03:57:58.622Z,1013.23
2022-10-05T03:58:58.648Z,1013.14
2022-10-05T03:59:58.606Z,1013.12
2022-10-05T04:00:58.571Z,1013.08
2022-10-05T04:01:58.651Z,1013.07
2022-10-05T04:02:58.563Z,1013.10
2022-10-05T04:03:58.581Z,1013.08
2022-10-05T04:04:58.515Z,1013.03
2022-10-05T04:05:58.536Z,1013.04
2022-10-05T04:06:58.512Z,1012.99
2022-10-05T04:07:58.502Z,1013.02
2022-10-05T04:08:58.522Z,1012.98
2022-10-05T04:09:58.476Z,1012.98
2022-10-05T04:10:58.456Z,1012.97
2022-10-05T04:11:58.455Z,1013.05
2022-10-05T04:12:58.436Z,1013.01
2022-10-05T04:13:58.476Z,1013.04
2022-10-05T04:14:58.397Z,1013.00
2022-10-05T04:15:58.477Z,1013.01
2022-10-05T04:16:58.436Z,1012.97
2022-10-05T04:17:58.380Z,1012.97
2022-10-05T04:18:58.418Z,1012.99
2022-10-05T04:19:58.373Z,1012.90
2022-10-05T04:20:58.362Z,1012.99
2022-10-05T04:21:58.343Z,1012.97
2022-10-05T04:22:58.336Z,1012.98
2022-10-05T04:23:58.381Z,1012.97
2022-10-05T04:24:58.286Z,1012.98
2022-10-05T04:25:58.303Z,1012.95
2022-10-05T04:26:58.275Z,1012.97
2022-10-05T04:27:58.294Z,1012.97
2022-10-05T04:28:58.308Z,1012.94
2022-10-05T04:29:58.260Z,1012.99
2022-10-05T04:30:58.263Z,1013.00
2022-10-05T04:31:58.208Z,1012.98
2022-10-05T04:32:58.218Z,1012.95
2022-10-05T04:33:58.242Z,1012.89
2022-10-05T04:34:58.187Z,1012.94
2022-10-05T04:35:58.184Z,1012.87
2022-10-05T04:36:58.174Z,1012.92
2022-10-05T04:37:58.170Z,1012.94
2022-10-05T04:38:58.185Z,1012.94
2022-10-05T04:39:58.147Z,1012.94
2022-10-05T04:40:58.154Z,1012.90
2022-10-05T04:41:58.124Z,1012.89
2022-10-05T04:42:58.155Z,1012.89
2022-10-05T04:43:58.096Z,1012.86
2022-10-05T04:44:59.392Z,1012.83
2022-10-05T04:45:58.060Z,1012.82
2022-10-05T04:46:58.127Z,1012.91
2022-10-05T04:47:58.101Z,1012.89
2022-10-05T04:48:58.036Z,1012.88
2022-10-05T04:49:58.029Z,1012.89
2022-10-05T04:50:58.020Z,1012.86
2022-10-05T04:51:58.005Z,1012.83
2022-10-05T04:52:58.024Z,1012.81
2022-10-05T04:53:57.968Z,1012.78
2022-10-05T04:54:57.974Z,1012.82
2022-10-05T04:55:57.977Z,1012.79
2022-10-05T04:56:57.933Z,1012.85
2022-10-05T04:57:57.987Z,1012.81
2022-10-05T04:58:57.918Z,1012.88
2022-10-05T04:59:57.915Z,1012.86
2022-10-05T05:00:57.966Z,1012.90
2022-10-05T05:01:57.880Z,1012.85
2022-10-05T05:02:57.910Z,1012.85
2022-10-05T05:03:57.855Z,1012.87
2022-10-05T05:04:57.831Z,1012.90
2022-10-05T05:06:16.462Z,1012.86
2022-10-05T05:06:58.817Z,1012.83
2022-10-05T05:07:57.851Z,1012.86
2022-10-05T05:08:57.801Z,1012.82
2022-10-05T05:09:57.799Z,1012.87
2022-10-05T05:10:57.788Z,1012.91
2022-10-05T05:11:57.795Z,1012.88
2022-10-05T05:12:57.827Z,1012.90
2022-10-05T05:13:57.746Z,1012.87
2022-10-05T05:14:57.736Z,1012.79
2022-10-05T05:15:57.906Z,1012.87
2022-10-05T05:16:57.727Z,1012.88
2022-10-05T05:17:57.756Z,1012.86
2022-10-05T05:18:57.698Z,1012.89
2022-10-05T05:19:57.717Z,1012.89
2022-10-05T05:20:57.666Z,1012.87
2022-10-05T05:21:57.662Z,1012.89
2022-10-05T05:22:57.697Z,1012.86
2022-10-05T05:23:57.646Z,1012.83
2022-10-05T05:24:57.619Z,1012.79
2022-10-05T05:25:57.641Z,1012.81
2022-10-05T05:26:57.643Z,1012.79
2022-10-05T05:27:57.709Z,1012.75
2022-10-05T05:28:57.567Z,1012.76
2022-10-05T05:29:57.560Z,1012.71
2022-10-05T05:30:57.593Z,1012.74
2022-10-05T05:31:57.543Z,1012.70
2022-10-05T05:32:57.672Z,1012.76
2022-10-05T05:33:57.507Z,1012.75
2022-10-05T05:34:57.496Z,1012.77
2022-10-05T05:35:57.500Z,1012.75
2022-10-05T05:36:57.473Z,1012.77
2022-10-05T05:37:57.516Z,1012.77
2022-10-05T05:38:57.462Z,1012.73
2022-10-05T05:39:57.458Z,1012.74
2022-10-05T05:40:57.446Z,1012.68
2022-10-05T05:41:57.454Z,1012.77
2022-10-05T05:42:57.468Z,1012.71
2022-10-05T05:43:57.402Z,1012.77
2022-10-05T05:44:57.391Z,1012.76
2022-10-05T05:45:57.386Z,1012.81
2022-10-05T05:47:05.410Z,1012.78
2022-10-05T05:47:58.412Z,1012.78
2022-10-05T05:48:57.359Z,1012.79
2022-10-05T05:49:57.332Z,1012.79
2022-10-05T05:50:57.354Z,1012.78
2022-10-05T05:51:57.320Z,1012.75
2022-10-05T05:52:57.389Z,1012.75
2022-10-05T05:53:57.309Z,1012.75
2022-10-05T05:54:57.274Z,1012.74
2022-10-05T05:55:57.287Z,1012.75
2022-10-05T05:56:57.257Z,1012.73
2022-10-05T05:57:57.297Z,1012.74
2022-10-05T05:58:57.237Z,1012.76
2022-10-05T05:59:57.221Z,1012.74
2022-10-05T06:00:57.226Z,1012.73
2022-10-05T06:01:57.283Z,1012.74
2022-10-05T06:02:57.345Z,1012.81
2022-10-05T06:03:57.178Z,1012.82
2022-10-05T06:04:57.178Z,1012.85
2022-10-05T06:05:57.161Z,1012.90
2022-10-05T06:06:57.155Z,1012.89
2022-10-05T06:07:57.197Z,1012.87
2022-10-05T06:08:57.126Z,1012.89
2022-10-05T06:09:57.117Z,1012.87
2022-10-05T06:10:57.091Z,1012.80
2022-10-05T06:11:57.101Z,1012.83
2022-10-05T06:13:01.487Z,1012.80
2022-10-05T06:13:57.078Z,1012.81
2022-10-05T06:14:57.058Z,1012.82
2022-10-05T06:15:57.080Z,1012.85
2022-10-05T06:16:57.126Z,1012.82
2022-10-05T06:17:57.071Z,1012.81
2022-10-05T06:18:57.021Z,1012.81
2022-10-05T06:20:01.093Z,1012.76
2022-10-05T06:20:57.993Z,1012.74
2022-10-05T06:21:56.986Z,1012.77
2022-10-05T06:22:57.031Z,1012.78
2022-10-05T06:23:56.976Z,1012.75
2022-10-05T06:24:56.937Z,1012.74
2022-10-05T06:25:56.941Z,1012.69
2022-10-05T06:26:56.927Z,1012.68
2022-10-05T06:27:57.037Z,1012.65
2022-10-05T06:28:56.900Z,1012.59
2022-10-05T06:29:56.904Z,1012.63
2022-10-05T06:30:56.890Z,1012.60
2022-10-05T06:31:59.023Z,1012.67
2022-10-05T06:32:56.889Z,1012.67
2022-10-05T06:33:56.828Z,1012.65
2022-10-05T06:34:56.843Z,1012.69
2022-10-05T06:35:56.840Z,1012.69
2022-10-05T06:36:56.820Z,1012.63
2022-10-05T06:37:56.837Z,1012.62
2022-10-05T06:38:56.784Z,1012.66
2022-10-05T06:40:00.854Z,1012.63
2022-10-05T06:40:56.770Z,1012.63
2022-10-05T06:41:56.760Z,1012.67
2022-10-05T06:42:56.789Z,1012.65
2022-10-05T06:43:56.744Z,1012.64
2022-10-05T06:44:56.729Z,1012.67
2022-10-05T06:45:56.772Z,1012.62
2022-10-05T06:46:56.690Z,1012.68
2022-10-05T06:47:58.629Z,1012.66
2022-10-05T06:48:56.688Z,1012.65
2022-10-05T06:49:56.659Z,1012.67
2022-10-05T06:50:56.663Z,1012.72
2022-10-05T06:51:56.643Z,1012.67
2022-10-05T06:52:56.676Z,1012.71
2022-10-05T06:53:56.640Z,1012.67
2022-10-05T06:54:56.611Z,1012.63
2022-10-05T06:55:56.596Z,1012.66
2022-10-05T06:56:56.595Z,1012.64
2022-10-05T06:57:56.645Z,1012.61
2022-10-05T06:58:56.562Z,1012.62
2022-10-05T06:59:56.568Z,1012.71
2022-10-05T07:00:56.586Z,1012.71
2022-10-05T07:01:56.579Z,1012.72
2022-10-05T07:02:56.547Z,1012.73
2022-10-05T07:03:56.500Z,1012.72
2022-10-05T07:04:56.476Z,1012.73
2022-10-05T07:05:56.500Z,1012.73
2022-10-05T07:06:56.476Z,1012.74
2022-10-05T07:07:56.536Z,1012.75
2022-10-05T07:08:56.448Z,1012.75
2022-10-05T07:09:56.450Z,1012.74
2022-10-05T07:10:56.435Z,1012.71
2022-10-05T07:12:00.828Z,1012.71
2022-10-05T07:12:57.466Z,1012.70
2022-10-05T07:13:56.396Z,1012.74
2022-10-05T07:14:56.379Z,1012.76
2022-10-05T07:15:56.592Z,1012.77
2022-10-05T07:16:56.362Z,1012.77
2022-10-05T07:17:56.349Z,1012.78
2022-10-05T07:18:56.380Z,1012.75
2022-10-05T07:19:56.334Z,1012.81
2022-10-05T07:20:56.315Z,1012.78
2022-10-05T07:21:56.358Z,1012.77
2022-10-05T07:22:56.291Z,1012.74
2022-10-05T07:23:56.346Z,1012.76
2022-10-05T07:24:56.259Z,1012.78
2022-10-05T07:25:56.267Z,1012.76
2022-10-05T07:26:56.237Z,1012.76
2022-10-05T07:27:56.260Z,1012.79
2022-10-05T07:28:56.282Z,1012.77
2022-10-05T07:29:56.223Z,1012.81
2022-10-05T07:30:56.259Z,1012.79
2022-10-05T07:31:56.177Z,1012.83
2022-10-05T07:32:56.180Z,1012.82
2022-10-05T07:33:56.205Z,1012.87
2022-10-05T07:34:56.159Z,1012.86
2022-10-05T07:35:56.144Z,1012.77
2022-10-05T07:36:56.408Z,1012.77
2022-10-05T07:37:56.113Z,1012.77
2022-10-05T07:38:56.151Z,1012.80
2022-10-05T07:40:00.631Z,1012.79
2022-10-05T07:40:57.084Z,1012.80
2022-10-05T07:41:56.079Z,1012.77
2022-10-05T07:42:56.087Z,1012.79
2022-10-05T07:44:02.642Z,1012.76
2022-10-05T07:44:57.059Z,1012.77
2022-10-05T07:45:56.130Z,1012.75
2022-10-05T07:46:56.034Z,1012.83
2022-10-05T07:47:56.015Z,1012.82
2022-10-05T07:48:56.031Z,1012.74
2022-10-05T07:49:55.986Z,1012.77
2022-10-05T07:50:55.971Z,1012.76
2022-10-05T07:51:55.952Z,1012.70
2022-10-05T07:52:55.963Z,1012.70
2022-10-05T07:53:55.989Z,1012.71
2022-10-05T07:54:55.926Z,1012.70
2022-10-05T07:55:55.925Z,1012.74
2022-10-05T07:56:55.914Z,1012.74
2022-10-05T07:57:55.935Z,1012.75
2022-10-05T07:58:55.961Z,1012.75
2022-10-05T07:59:55.841Z,1012.71
2022-10-05T08:00:55.860Z,1012.71
2022-10-05T08:01:55.845Z,1012.67
2022-10-05T08:02:55.949Z,1012.65
2022-10-05T08:03:55.800Z,1012.67
2022-10-05T08:04:55.823Z,1012.69
2022-10-05T08:05:55.793Z,1012.71
2022-10-05T08:06:55.802Z,1012.67
2022-10-05T08:07:55.852Z,1012.70
2022-10-05T08:08:55.771Z,1012.68
2022-10-05T08:09:55.761Z,1012.72
2022-10-05T08:10:55.751Z,1012.74
2022-10-05T08:11:55.743Z,1012.72
2022-10-05T08:12:55.736Z,1012.70
2022-10-05T08:13:55.753Z,1012.68
2022-10-05T08:14:55.711Z,1012.77
2022-10-05T08:15:55.711Z,1012.77
2022-10-05T08:16:55.696Z,1012.75
2022-10-05T08:17:55.657Z,1012.75
2022-10-05T08:18:55.716Z,1012.72
2022-10-05T08:19:55.636Z,1012.73
2022-10-05T08:20:55.651Z,1012.65
2022-10-05T08:21:55.619Z,1012.66
2022-10-05T08:22:55.694Z,1012.63
2022-10-05T08:23:55.653Z,1012.64
2022-10-05T08:24:55.588Z,1012.59
2022-10-05T08:25:55.592Z,1012.56
2022-10-05T08:26:55.565Z,1012.53
2022-10-05T08:27:55.632Z,1012.55
2022-10-05T08:28:55.635Z,1012.51
2022-10-05T08:29:55.524Z,1012.49
2022-10-05T08:30:55.563Z,1012.54
2022-10-05T08:31:55.518Z,1012.50
2022-10-05T08:32:55.537Z,1012.46
2022-10-05T08:33:55.540Z,1012.48
2022-10-05T08:34:55.476Z,1012.48
2022-10-05T08:35:55.460Z,1012.46
2022-10-05T08:36:55.533Z,1012.43
2022-10-05T08:37:55.442Z,1012.42
2022-10-05T08:38:55.493Z,1012.44
2022-10-05T08:39:55.418Z,1012.41
2022-10-05T08:40:55.417Z,1012.39
2022-10-05T08:41:55.393Z,1012.41
2022-10-05T08:42:55.382Z,1012.36
2022-10-05T08:43:55.407Z,1012.38
2022-10-05T08:44:55.362Z,1012.39
2022-10-05T08:45:55.388Z,1012.44
2022-10-05T08:46:55.363Z,1012.38
2022-10-05T08:47:55.309Z,1012.36
2022-10-05T08:48:55.356Z,1012.39
2022-10-05T08:49:55.304Z,1012.38
2022-10-05T08:50:55.323Z,1012.43
2022-10-05T08:51:55.282Z,1012.39
2022-10-05T08:52:55.284Z,1012.45
2022-10-05T08:53:55.331Z,1012.42
2022-10-05T08:54:55.276Z,1012.40
2022-10-05T08:55:55.240Z,1012.38
2022-10-05T08:56:55.232Z,1012.39
2022-10-05T08:57:55.198Z,1012.32
2022-10-05T08:58:55.239Z,1012.36
2022-10-05T08:59:55.181Z,1012.35
2022-10-05T09:00:55.175Z,1012.35
2022-10-05T09:01:55.270Z,1012.41
2022-10-05T09:02:55.193Z,1012.32
2022-10-05T09:03:55.203Z,1012.34
2022-10-05T09:04:55.152Z,1012.32
2022-10-05T09:05:55.130Z,1012.37
2022-10-05T09:06:55.149Z,1012.29
2022-10-05T09:07:55.112Z,1012.31
2022-10-05T09:08:55.116Z,1012.31
2022-10-05T09:09:59.489Z,1012.29
2022-10-05T09:10:56.081Z,1012.32
2022-10-05T09:11:55.054Z,1012.38
2022-10-05T09:12:55.051Z,1012.34
2022-10-05T09:13:55.073Z,1012.36
2022-10-05T09:15:20.490Z,1012.34
2022-10-05T09:15:56.052Z,1012.32
2022-10-05T09:16:55.004Z,1012.32
2022-10-05T09:17:55.014Z,1012.28
2022-10-05T09:18:55.053Z,1012.25
2022-10-05T09:19:54.978Z,1012.24
2022-10-05T09:20:54.967Z,1012.24
2022-10-05T09:21:54.937Z,1012.25
2022-10-05T09:22:54.956Z,1012.30
2022-10-05T09:23:54.977Z,1012.29
2022-10-05T09:24:54.892Z,1012.21
2022-10-05T09:25:54.899Z,1012.31
2022-10-05T09:26:54.885Z,1012.36
2022-10-05T09:27:54.908Z,1012.28
2022-10-05T09:28:54.903Z,1012.30
2022-10-05T09:29:54.866Z,1012.22
2022-10-05T09:30:54.889Z,1012.24
2022-10-05T09:31:54.857Z,1012.18
2022-10-05T09:32:54.827Z,1012.18
2022-10-05T09:33:54.852Z,1012.14
2022-10-05T09:34:54.823Z,1012.11
2022-10-05T09:35:54.791Z,1012.14
2022-10-05T09:36:54.788Z,1012.08
2022-10-05T09:37:54.760Z,1012.09
2022-10-05T09:38:54.831Z,1012.10
2022-10-05T09:39:59.068Z,1012.04
2022-10-05T09:40:55.734Z,1012.16
2022-10-05T09:41:54.713Z,1012.14
2022-10-05T09:42:54.714Z,1012.10
2022-10-05T09:43:54.741Z,1012.08
2022-10-05T09:44:54.685Z,1012.04
2022-10-05T09:45:54.712Z,1012.06
2022-10-05T09:46:54.671Z,1012.06
2022-10-05T09:47:54.693Z,1012.08
2022-10-05T09:48:54.679Z,1012.12
2022-10-05T09:49:54.618Z,1012.15
2022-10-05T09:50:54.622Z,1012.08
2022-10-05T09:51:54.618Z,1012.15
2022-10-05T09:52:54.641Z,1012.10
2022-10-05T09:53:54.577Z,1012.09
2022-10-05T09:54:54.595Z,1012.06
2022-10-05T09:55:54.554Z,1012.06
2022-10-05T09:56:54.565Z,1012.09
2022-10-05T09:57:54.563Z,1012.02
2022-10-05T09:58:54.536Z,1012.02
2022-10-05T09:59:54.568Z,1012.01
2022-10-05T10:01:03.718Z,1012.01
2022-10-05T10:01:55.582Z,1012.01
2022-10-05T10:02:54.609Z,1011.98
2022-10-05T10:03:54.464Z,1011.92
2022-10-05T10:04:54.465Z,1011.93
2022-10-05T10:05:54.445Z,1011.93
2022-10-05T10:06:54.445Z,1011.88
2022-10-05T10:07:54.462Z,1011.85
2022-10-05T10:08:54.424Z,1011.83
2022-10-05T10:09:54.396Z,1011.83
2022-10-05T10:10:54.410Z,1011.85
2022-10-05T10:11:54.394Z,1011.84
2022-10-05T10:12:54.432Z,1011.81
2022-10-05T10:13:54.364Z,1011.78
2022-10-05T10:14:54.348Z,1011.82
2022-10-05T10:15:54.369Z,1011.79
2022-10-05T10:16:54.347Z,1011.81
2022-10-05T10:17:54.356Z,1011.78
2022-10-05T10:18:54.302Z,1011.79
2022-10-05T10:19:54.300Z,1011.80
2022-10-05T10:20:54.290Z,1011.75
2022-10-05T10:21:54.285Z,1011.77
2022-10-05T10:22:54.261Z,1011.78
2022-10-05T10:23:54.284Z,1011.73
2022-10-05T10:24:54.236Z,1011.72
2022-10-05T10:25:54.220Z,1011.80
2022-10-05T10:26:54.219Z,1011.75
2022-10-05T10:27:54.303Z,1011.77
2022-10-05T10:28:54.257Z,1011.73
2022-10-05T10:29:54.180Z,1011.76
2022-10-05T10:30:54.205Z,1011.72
2022-10-05T10:31:54.159Z,1011.72
2022-10-05T10:32:54.137Z,1011.74
2022-10-05T10:33:54.187Z,1011.73
2022-10-05T10:34:54.167Z,1011.72
2022-10-05T10:35:54.121Z,1011.70
2022-10-05T10:36:54.123Z,1011.71
2022-10-05T10:37:54.131Z,1011.70
2022-10-05T10:38:54.092Z,1011.68
2022-10-05T10:39:54.085Z,1011.70
2022-10-05T10:40:54.069Z,1011.69
2022-10-05T10:41:54.064Z,1011.64
2022-10-05T10:42:54.058Z,1011.68
2022-10-05T10:43:54.084Z,1011.65
2022-10-05T10:44:54.025Z,1011.67
2022-10-05T10:45:54.003Z,1011.64
2022-10-05T10:46:54.126Z,1011.66
2022-10-05T10:47:53.992Z,1011.59
2022-10-05T10:48:54.023Z,1011.65
2022-10-05T10:49:53.961Z,1011.65
2022-10-05T10:50:53.968Z,1011.67
2022-10-05T10:51:53.960Z,1011.59
2022-10-05T10:52:53.944Z,1011.66
2022-10-05T10:53:53.977Z,1011.59
2022-10-05T10:54:53.906Z,1011.55
2022-10-05T10:55:53.895Z,1011.60
2022-10-05T10:56:53.887Z,1011.58
2022-10-05T10:57:53.898Z,1011.55
2022-10-05T10:58:53.922Z,1011.55
2022-10-05T10:59:53.838Z,1011.50
2022-10-05T11:00:53.865Z,1011.53
2022-10-05T11:01:53.885Z,1011.48
2022-10-05T11:02:53.922Z,1011.51
2022-10-05T11:03:53.877Z,1011.51
2022-10-05T11:04:53.803Z,1011.46
2022-10-05T11:05:53.794Z,1011.49
2022-10-05T11:06:53.764Z,1011.42
2022-10-05T11:07:53.769Z,1011.47
2022-10-05T11:08:53.824Z,1011.48
2022-10-05T11:09:53.742Z,1011.49
2022-10-05T11:10:53.740Z,1011.47
2022-10-05T11:11:53.727Z,1011.45
2022-10-05T11:12:53.702Z,1011.49
2022-10-05T11:13:53.769Z,1011.51
2022-10-05T11:14:53.702Z,1011.53
2022-10-05T11:15:53.751Z,1011.54
2022-10-05T11:16:53.922Z,1011.52
2022-10-05T11:17:53.656Z,1011.54
2022-10-05T11:18:53.713Z,1011.48
2022-10-05T11:20:03.555Z,1011.47
2022-10-05T11:20:54.626Z,1011.48
2022-10-05T11:21:53.648Z,1011.49
2022-10-05T11:22:53.603Z,1011.45
2022-10-05T11:23:53.636Z,1011.48
2022-10-05T11:24:53.584Z,1011.46
2022-10-05T11:25:53.568Z,1011.44
2022-10-05T11:26:53.557Z,1011.41
2022-10-05T11:27:53.622Z,1011.40
2022-10-05T11:28:53.592Z,1011.36
2022-10-05T11:29:53.541Z,1011.37
2022-10-05T11:30:53.589Z,1011.39
2022-10-05T11:31:53.879Z,1011.33
2022-10-05T11:32:53.511Z,1011.29
2022-10-05T11:33:53.541Z,1011.33
2022-10-05T11:34:53.493Z,1011.31
2022-10-05T11:35:53.461Z,1011.26
2022-10-05T11:36:53.478Z,1011.32
2022-10-05T11:37:53.441Z,1011.30
2022-10-05T11:38:53.476Z,1011.34
2022-10-05T11:39:53.443Z,1011.32
2022-10-05T11:40:53.432Z,1011.28
2022-10-05T11:41:53.415Z,1011.24
2022-10-05T11:42:53.388Z,1011.21
2022-10-05T11:43:53.421Z,1011.22
2022-10-05T11:44:53.375Z,1011.20
2022-10-05T11:45:53.361Z,1011.17
2022-10-05T11:46:53.411Z,1011.20
2022-10-05T11:47:53.343Z,1011.16
2022-10-05T11:48:53.390Z,1011.23
2022-10-05T11:49:53.328Z,1011.17
2022-10-05T11:50:53.303Z,1011.13
2022-10-05T11:51:53.275Z,1011.11
2022-10-05T11:52:53.304Z,1011.11
2022-10-05T11:53:53.302Z,1011.08
2022-10-05T11:55:09.810Z,1011.07
2022-10-05T11:55:54.237Z,1011.02
2022-10-05T11:56:54.732Z,1011.09
2022-10-05T11:57:53.219Z,1011.02
2022-10-05T11:58:53.267Z,1011.06
2022-10-05T11:59:53.214Z,1011.05
2022-10-05T12:00:53.184Z,1011.07
2022-10-05T12:01:53.199Z,1011.04
2022-10-05T12:02:53.252Z,1011.05
2022-10-05T12:03:53.297Z,1011.02
2022-10-05T12:04:53.149Z,1011.02